Time;durP1;ratioP1;P1;durP2;ratioP2;P2;SDS_P1;SDS_P2;PMS_P1;PMS_P2;Temp;Humidity;BMP_temperature;BMP_pressure;BME280_temperature;BME280_humidity;BME280_pressure;Samples;Min_cycle;Max_cycle;Signal;HPM_P1;HPM_P2
2021/12/30 00:01:18;;;;;;;;;;;;;;;3.27;100.00;100169.31;5035676;28;954;-72
2021/12/30 00:03:46;;;;;;;;;;;;;;;3.27;100.00;100172.00;5052871;28;1918;-71
2021/12/30 00:06:14;;;;;;;;;;;;;;;3.30;100.00;100168.28;5052583;28;1022;-71
2021/12/30 00:08:41;;;;;;;;;;;;;;;3.32;100.00;100163.69;5052856;28;788;-71
2021/12/30 00:11:07;;;;;;;;;;;;;;;3.33;100.00;100162.75;5052339;28;872;-73
2021/12/30 00:13:34;;;;;;;;;;;;;;;3.34;100.00;100168.03;5051961;28;1306;-73
2021/12/30 00:16:03;;;;;;;;;;;;;;;3.35;100.00;100168.88;5034985;28;1089;-74
2021/12/30 00:18:29;;;;;;;;;;;;;;;3.38;100.00;100163.34;5053011;28;895;-73
2021/12/30 00:20:55;;;;;;;;;;;;;;;3.36;100.00;100154.50;5052491;28;958;-72
2021/12/30 00:23:23;;;;;;;;;;;;;;;3.37;100.00;100153.56;5052470;28;1980;-73
2021/12/30 00:25:49;;;;;;;;;;;;;;;3.33;100.00;100154.69;5052047;28;918;-73
2021/12/30 00:28:17;;;;;;;;;;;;;;;3.31;100.00;100159.28;5052186;28;874;-73
2021/12/30 00:30:44;;;;;;;;;;;;;;;3.30;100.00;100161.13;5034416;28;916;-71
2021/12/30 00:33:10;;;;;;;;;;;;;;;3.33;100.00;100158.22;5052195;28;1315;-71
2021/12/30 00:35:36;;;;;;;;;;;;;;;3.29;100.00;100158.53;5052305;28;788;-72
2021/12/30 00:38:03;;;;;;;;;;;;;;;3.29;100.00;100164.75;5052084;28;954;-74
2021/12/30 00:40:30;;;;;;;;;;;;;;;3.32;100.00;100163.69;5034339;28;1038;-73
2021/12/30 00:42:57;;;;;;;;;;;;;;;3.32;100.00;100163.69;5051897;28;1286;-72
2021/12/30 00:45:23;;;;;;;;;;;;;;;3.32;100.00;100158.34;5053209;28;1965;-74
2021/12/30 00:47:50;;;;;;;;;;;;;;;3.32;100.00;100166.38;5051818;28;970;-73
2021/12/30 00:50:16;;;;;;;;;;;;;;;3.34;100.00;100164.44;5051615;28;1006;-73
2021/12/30 00:52:42;;;;;;;;;;;;;;;3.35;100.00;100166.19;5051724;28;1312;-73
2021/12/30 00:55:09;;;;;;;;;;;;;;;3.38;100.00;100170.50;5051932;28;892;-73
2021/12/30 00:57:36;;;;;;;;;;;;;;;3.39;100.00;100170.41;5051551;28;1057;-73
2021/12/30 01:00:04;;;;;;;;;;;;;;;3.41;100.00;100176.56;5051826;28;911;-72
2021/12/30 01:02:30;;;;;;;;;;;;;;;3.43;100.00;100177.31;5051507;28;1303;-73
2021/12/30 01:04:57;;;;;;;;;;;;;;;3.43;100.00;100184.50;5051629;28;1914;-72
2021/12/30 01:07:23;;;;;;;;;;;;;;;3.44;100.00;100181.72;5051154;28;911;-72
2021/12/30 01:09:49;;;;;;;;;;;;;;;3.45;100.00;100177.25;5051294;28;939;-72
2021/12/30 01:12:16;;;;;;;;;;;;;;;3.43;100.00;100177.31;5051395;28;1370;-73
2021/12/30 01:14:46;;;;;;;;;;;;;;;3.43;100.00;100180.00;5051772;28;843;-73
2021/12/30 01:17:15;;;;;;;;;;;;;;;3.42;100.00;100172.94;5051638;28;616;-73
2021/12/30 01:19:44;;;;;;;;;;;;;;;3.41;100.00;100173.88;5051889;28;884;-72
2021/12/30 01:22:12;;;;;;;;;;;;;;;3.41;100.00;100183.72;5051472;28;1271;-71
2021/12/30 01:24:38;;;;;;;;;;;;;;;3.44;100.00;100192.47;5050468;28;1926;-73
2021/12/30 01:27:05;;;;;;;;;;;;;;;3.45;100.00;100199.56;5050802;28;840;-73
2021/12/30 01:29:31;;;;;;;;;;;;;;;3.48;100.00;100193.16;5033136;28;1558;-72
2021/12/30 01:31:59;;;;;;;;;;;;;;;3.50;100.00;100185.84;5033470;28;1324;-73
2021/12/30 01:34:27;;;;;;;;;;;;;;;3.51;100.00;100183.13;5051123;28;982;-73
2021/12/30 01:36:53;;;;;;;;;;;;;;;3.50;100.00;100178.69;5050984;28;836;-72
2021/12/30 01:39:21;;;;;;;;;;;;;;;3.52;100.00;100176.75;5051266;28;990;-72
2021/12/30 01:41:48;;;;;;;;;;;;;;;3.50;100.00;100173.31;5051241;28;1320;-72
2021/12/30 01:44:14;;;;;;;;;;;;;;;3.50;100.00;100169.75;5050639;28;1910;-72
2021/12/30 01:46:42;;;;;;;;;;;;;;;3.50;100.00;100173.31;5051049;28;919;-72
2021/12/30 01:49:10;;;;;;;;;;;;;;;3.54;100.00;100181.19;5033223;28;1190;-73
2021/12/30 01:51:37;;;;;;;;;;;;;;;3.56;100.00;100190.03;5051076;28;979;-73
2021/12/30 01:54:03;;;;;;;;;;;;;;;3.52;100.00;100174.06;5081260;22;2286;-77
2021/12/30 01:56:30;;;;;;;;;;;;;;;3.49;100.00;100171.59;5092895;28;981;-76
2021/12/30 01:58:56;;;;;;;;;;;;;;;3.48;100.00;100175.22;5080898;28;930;-76
2021/12/30 02:01:23;;;;;;;;;;;;;;;3.49;100.00;100173.44;5079540;28;1049;-75
2021/12/30 02:03:50;;;;;;;;;;;;;;;3.48;100.00;100177.91;5085565;28;1979;-76
2021/12/30 02:06:18;;;;;;;;;;;;;;;3.50;100.00;100169.75;5095054;28;740;-76
2021/12/30 02:08:44;;;;;;;;;;;;;;;3.48;100.00;100177.91;5077118;28;872;-76
2021/12/30 02:11:10;;;;;;;;;;;;;;;3.47;100.00;100184.22;5095098;28;745;-75
2021/12/30 02:13:36;;;;;;;;;;;;;;;3.49;100.00;100185.00;5095606;28;1387;-76
2021/12/30 02:16:03;;;;;;;;;;;;;;;3.47;100.00;100184.22;5076549;28;807;-75
2021/12/30 02:18:30;;;;;;;;;;;;;;;3.47;100.00;100165.44;5076780;28;1057;-75
2021/12/30 02:20:58;;;;;;;;;;;;;;;3.45;100.00;100175.41;5075841;28;1183;-72
2021/12/30 02:23:26;;;;;;;;;;;;;;;3.43;100.00;100190.72;5076076;28;1352;-77
2021/12/30 02:25:53;;;;;;;;;;;;;;;3.46;100.00;100189.69;5093891;28;1977;-73
2021/12/30 02:28:22;;;;;;;;;;;;;;;3.48;100.00;100179.75;5078409;28;978;-78
2021/12/30 02:30:49;;;;;;;;;;;;;;;3.52;100.00;100181.28;5080669;28;1145;-74
2021/12/30 02:33:16;;;;;;;;;;;;;;;3.57;100.00;100170.25;5099011;28;1266;-76
2021/12/30 02:35:43;;;;;;;;;;;;;;;3.58;100.00;100167.50;5099164;28;1165;-78
2021/12/30 02:38:11;;;;;;;;;;;;;;;3.61;100.00;100175.34;5101258;28;1029;-77
2021/12/30 02:40:40;;;;;;;;;;;;;;;3.64;100.00;100177.00;5101377;28;793;-75
2021/12/30 02:43:07;;;;;;;;;;;;;;;3.67;100.00;100171.41;5101264;28;1374;-76
2021/12/30 02:45:34;;;;;;;;;;;;;;;3.69;100.00;100172.22;5083288;28;1910;-80
2021/12/30 02:48:00;;;;;;;;;;;;;;;3.73;100.00;100178.22;5100926;28;1152;-72
2021/12/30 02:50:26;;;;;;;;;;;;;;;3.75;100.00;100176.31;5083858;28;781;-76
2021/12/30 02:52:52;;;;;;;;;;;;;;;3.78;100.00;100181.50;5101271;28;1318;-75
2021/12/30 02:55:20;;;;;;;;;;;;;;;3.81;100.00;100171.44;5083928;28;986;-74
2021/12/30 02:57:46;;;;;;;;;;;;;;;3.83;100.00;100177.56;5101223;28;911;-75
2021/12/30 03:00:13;;;;;;;;;;;;;;;3.85;100.00;100181.03;5082182;28;1149;-74
2021/12/30 03:02:40;;;;;;;;;;;;;;;3.92;100.00;100176.16;5082217;28;1049;-73
2021/12/30 03:05:07;;;;;;;;;;;;;;;3.96;100.00;100180.38;5065025;28;1911;-76
2021/12/30 03:07:34;;;;;;;;;;;;;;;3.99;100.00;100182.84;5081580;28;1021;-75
2021/12/30 03:10:00;;;;;;;;;;;;;;;4.01;100.00;100178.25;5097937;28;1155;-75
2021/12/30 03:12:28;;;;;;;;;;;;;;;4.03;100.00;100178.16;5097825;28;1053;-78
2021/12/30 03:14:56;;;;;;;;;;;;;;;4.07;100.00;100193.13;5096848;28;1294;-77
2021/12/30 03:17:22;;;;;;;;;;;;;;;4.08;100.00;100200.22;5079414;28;1169;-76
2021/12/30 03:19:49;;;;;;;;;;;;;;;4.11;100.00;100193.81;5097797;28;1085;-77
2021/12/30 03:22:15;;;;;;;;;;;;;;;4.12;100.00;100192.84;5079048;28;1155;-76
2021/12/30 03:24:41;;;;;;;;;;;;;;;4.11;100.00;100194.66;5078813;28;1914;-76
2021/12/30 03:27:08;;;;;;;;;;;;;;;4.13;100.00;100190.06;5082838;28;1269;-77
2021/12/30 03:29:35;;;;;;;;;;;;;;;4.13;100.00;100195.44;5100112;28;1098;-76
2021/12/30 03:32:01;;;;;;;;;;;;;;;4.16;100.00;100195.22;5099413;28;1089;-75
2021/12/30 03:34:28;;;;;;;;;;;;;;;4.18;100.00;100200.50;5098667;28;1540;-78
2021/12/30 03:36:54;;;;;;;;;;;;;;;4.19;100.00;100210.28;5081335;28;1168;-78
2021/12/30 03:39:20;;;;;;;;;;;;;;;4.19;100.00;100197.72;5081266;28;1465;-76
2021/12/30 03:41:46;;;;;;;;;;;;;;;4.19;100.00;100208.47;5081452;28;894;-76
2021/12/30 03:44:13;;;;;;;;;;;;;;;4.21;100.00;100202.13;5062518;28;2020;-76
2021/12/30 03:46:40;;;;;;;;;;;;;;;4.22;100.00;100201.19;5097382;28;1977;-77
2021/12/30 03:49:07;;;;;;;;;;;;;;;4.22;100.00;100204.72;5058187;28;1217;-76
2021/12/30 03:51:38;;;;;;;;;;;;;;;4.25;100.00;100209.91;5098134;28;1213;-74
2021/12/30 03:54:05;;;;;;;;;;;;;;;4.28;100.00;100206.19;5080521;28;1318;-75
2021/12/30 03:56:31;;;;;;;;;;;;;;;4.29;100.00;100206.06;5080429;28;1263;-76
2021/12/30 03:58:58;;;;;;;;;;;;;;;4.30;100.00;100206.94;5098916;28;788;-73
2021/12/30 04:01:25;;;;;;;;;;;;;;;4.33;100.00;100212.13;5098112;28;1089;-77
2021/12/30 04:03:53;;;;;;;;;;;;;;;4.36;100.00;100223.53;5100213;28;1415;-75
2021/12/30 04:06:20;;;;;;;;;;;;;;;4.42;100.00;100226.78;5081072;28;1977;-76
2021/12/30 04:08:46;;;;;;;;;;;;;;;4.49;100.00;100253.19;5097869;28;1124;-74
2021/12/30 04:11:13;;;;;;;;;;;;;;;4.54;100.00;100263.63;5079247;28;903;-76
2021/12/30 04:13:39;;;;;;;;;;;;;;;4.61;100.00;100274.88;5097337;28;1325;-78
2021/12/30 04:16:06;;;;;;;;;;;;;;;4.75;100.00;100276.69;5078951;28;1306;-76
2021/12/30 04:18:32;;;;;;;;;;;;;;;4.82;100.00;100288.75;5096933;28;1097;-75
2021/12/30 04:21:00;;;;;;;;;;;;;;;4.93;100.00;100290.75;5097175;28;1041;-75
2021/12/30 04:23:26;;;;;;;;;;;;;;;5.00;100.00;100301.03;5097056;28;1357;-74
2021/12/30 04:25:53;;;;;;;;;;;;;;;5.11;100.00;100289.56;5079628;28;1965;-76
2021/12/30 04:28:19;;;;;;;;;;;;;;;5.23;100.00;100287.06;5097413;28;745;-76
2021/12/30 04:30:45;;;;;;;;;;;;;;;5.26;100.00;100286.84;5097841;28;966;-74
2021/12/30 04:33:11;;;;;;;;;;;;;;;5.33;100.00;100290.84;5097392;28;1337;-74
2021/12/30 04:35:38;;;;;;;;;;;;;;;5.36;100.00;100301.44;5078304;28;1162;-78
2021/12/30 04:38:05;;;;;;;;;;;;;;;5.46;100.00;100291.75;5096965;28;1133;-76
2021/12/30 04:40:32;;;;;;;;;;;;;;;5.50;100.00;100300.50;5097545;28;1127;-76
2021/12/30 04:42:58;;;;;;;;;;;;;;;5.55;100.00;100294.81;5078373;28;1436;-76
2021/12/30 04:45:26;;;;;;;;;;;;;;;5.58;100.00;100291.91;5096598;28;1945;-74
2021/12/30 04:47:53;;;;;;;;;;;;;;;5.59;100.00;100307.97;5094610;28;851;-76
2021/12/30 04:50:19;;;;;;;;;;;;;;;5.61;100.00;100302.47;5092710;28;1390;-76
2021/12/30 04:52:45;;;;;;;;;;;;;;;5.64;100.00;100291.50;5093604;28;1517;-74
2021/12/30 04:55:13;;;;;;;;;;;;;;;5.65;100.00;100290.50;5079481;28;1488;-76
2021/12/30 04:57:39;;;;;;;;;;;;;;;5.67;100.00;100302.91;5096915;28;1030;-76
2021/12/30 05:00:07;;;;;;;;;;;;;;;5.69;100.00;100313.59;5078909;28;1139;-76
2021/12/30 05:02:49;;;;;;;;;;;;;;;5.72;100.00;100299.94;5077542;28;1620;-76
2021/12/30 05:05:15;;;;;;;;;;;;;;;5.75;100.00;100309.63;5096056;28;1898;-74
2021/12/30 05:07:42;;;;;;;;;;;;;;;5.76;100.00;100316.72;5095669;28;1642;-74
2021/12/30 05:10:08;;;;;;;;;;;;;;;5.78;100.00;100315.66;5096335;28;1065;-76
2021/12/30 05:12:36;;;;;;;;;;;;;;;5.81;100.00;100307.38;5095305;28;1596;-75
2021/12/30 05:15:02;;;;;;;;;;;;;;;5.84;100.00;100303.63;5094661;28;1289;-74
2021/12/30 05:17:30;;;;;;;;;;;;;;;5.87;100.00;100303.41;5094166;28;1524;-73
2021/12/30 05:19:56;;;;;;;;;;;;;;;5.91;100.00;100304.06;5099039;28;1045;-74
2021/12/30 05:22:23;;;;;;;;;;;;;;;5.91;100.00;100306.75;5098873;28;1489;-75
2021/12/30 05:24:49;;;;;;;;;;;;;;;5.94;100.00;100330.78;5074864;28;1408;-76
2021/12/30 05:27:17;;;;;;;;;;;;;;;5.97;100.00;100335.97;5077335;28;1984;-75
2021/12/30 05:29:44;;;;;;;;;;;;;;;6.01;100.00;100340.19;5096301;28;855;-74
2021/12/30 05:32:11;;;;;;;;;;;;;;;6.04;100.00;100334.63;5096413;28;1499;-75
2021/12/30 05:34:37;;;;;;;;;;;;;;;6.06;100.00;100335.38;5093793;28;1560;-76
2021/12/30 05:37:03;;;;;;;;;;;;;;;6.10;100.00;100347.66;5093649;28;1520;-75
2021/12/30 05:39:30;;;;;;;;;;;;;;;6.13;100.00;100346.59;5075771;28;1034;-75
2021/12/30 05:41:56;;;;;;;;;;;;;;;6.11;100.00;100349.38;5058605;28;1271;-75
2021/12/30 05:44:23;;;;;;;;;;;;;;;6.14;100.00;100349.16;5094053;28;1681;-76
2021/12/30 05:46:50;;;;;;;;;;;;;;;6.22;100.00;100358.56;5095310;28;1918;-75
2021/12/30 05:49:16;;;;;;;;;;;;;;;6.21;100.00;100365.78;5077155;28;991;-75
2021/12/30 05:51:43;;;;;;;;;;;;;;;6.25;100.00;100367.28;5095338;28;994;-75
2021/12/30 05:54:10;;;;;;;;;;;;;;;6.29;100.00;100368.81;5094140;28;1320;-75
2021/12/30 05:56:36;;;;;;;;;;;;;;;6.31;100.00;100376.81;5076079;28;1050;-75
2021/12/30 05:59:02;;;;;;;;;;;;;;;6.34;100.00;100374.75;5097339;28;832;-76
2021/12/30 06:01:29;;;;;;;;;;;;;;;6.36;100.00;100380.06;5075704;28;915;-76
2021/12/30 06:03:56;;;;;;;;;;;;;;;6.36;100.00;100375.53;5093335;28;1423;-75
2021/12/30 06:06:24;;;;;;;;;;;;;;;6.36;100.00;100378.22;5093082;28;1988;-76
2021/12/30 06:08:50;;;;;;;;;;;;;;;6.37;100.00;100384.47;5093758;28;1049;-75
2021/12/30 06:11:17;;;;;;;;;;;;;;;6.41;100.00;100379.72;5095379;28;1025;-75
2021/12/30 06:13:43;;;;;;;;;;;;;;;6.41;100.00;100380.56;5097106;28;1384;-75
2021/12/30 06:16:09;;;;;;;;;;;;;;;6.43;100.00;100392.13;5079345;28;998;-76
2021/12/30 06:18:35;;;;;;;;;;;;;;;6.46;100.00;100394.59;5097218;28;975;-75
2021/12/30 06:21:03;;;;;;;;;;;;;;;6.49;100.00;100391.72;5098238;28;990;-75
2021/12/30 06:23:29;;;;;;;;;;;;;;;6.51;100.00;100387.06;5097663;28;1410;-74
2021/12/30 06:25:56;;;;;;;;;;;;;;;6.54;100.00;100386.00;5097190;28;1976;-75
2021/12/30 06:28:22;;;;;;;;;;;;;;;6.54;100.00;100376.06;5096549;28;953;-75
2021/12/30 06:30:48;;;;;;;;;;;;;;;6.55;100.00;100385.03;5096931;28;1085;-75
2021/12/30 06:33:14;;;;;;;;;;;;;;;6.58;100.00;100383.97;5096406;28;1423;-77
2021/12/30 06:35:41;;;;;;;;;;;;;;;6.58;100.00;100392.91;5096476;28;1180;-74
2021/12/30 06:38:08;;;;;;;;;;;;;;;6.60;100.00;100400.88;5095320;28;784;-76
2021/12/30 06:40:34;;;;;;;;;;;;;;;6.61;100.00;100403.47;5077556;28;903;-77
2021/12/30 06:43:01;;;;;;;;;;;;;;;6.64;100.00;100413.19;5095950;28;1395;-74
2021/12/30 06:45:27;;;;;;;;;;;;;;;6.66;100.00;100422.88;5094889;28;1973;-75
2021/12/30 06:47:53;;;;;;;;;;;;;;;6.67;100.00;100421.06;5095165;28;1034;-74
2021/12/30 06:50:23;;;;;;;;;;;;;;;6.67;100.00;100421.06;5081230;28;1318;-77
2021/12/30 06:52:50;;;;;;;;;;;;;;;6.66;100.00;100422.03;5101485;28;1345;-76
2021/12/30 06:55:17;;;;;;;;;;;;;;;6.70;100.00;100429.78;5100545;28;998;-76
2021/12/30 06:57:44;;;;;;;;;;;;;;;6.70;100.00;100426.25;5093988;28;1065;-76
2021/12/30 07:00:11;;;;;;;;;;;;;;;6.72;100.00;100428.84;5094108;28;717;-76
2021/12/30 07:02:37;;;;;;;;;;;;;;;6.73;100.00;100431.41;5094177;28;969;-77
2021/12/30 07:05:04;;;;;;;;;;;;;;;6.75;100.00;100434.88;5076034;28;1413;-75
2021/12/30 07:07:30;;;;;;;;;;;;;;;6.74;100.00;100435.84;5093845;28;1913;-75
2021/12/30 07:09:57;;;;;;;;;;;;;;;6.73;100.00;100433.25;5093770;28;804;-76
2021/12/30 07:12:24;;;;;;;;;;;;;;;6.76;100.00;100436.63;5093368;28;839;-75
2021/12/30 07:14:50;;;;;;;;;;;;;;;6.78;100.00;100434.66;5093684;28;1373;-75
2021/12/30 07:17:17;;;;;;;;;;;;;;;6.82;100.00;100441.56;5093637;28;1050;-76
2021/12/30 07:19:43;;;;;;;;;;;;;;;6.82;100.00;100446.97;5093926;28;905;-76
2021/12/30 07:22:09;;;;;;;;;;;;;;;6.81;100.00;100455.16;5094200;28;997;-76
2021/12/30 07:24:35;;;;;;;;;;;;;;;6.82;100.00;100454.22;5093655;28;1410;-76
2021/12/30 07:27:02;;;;;;;;;;;;;;;6.82;100.00;100457.75;5093426;28;1910;-74
2021/12/30 07:29:29;;;;;;;;;;;;;;;6.82;100.00;100460.44;5094088;28;891;-74
2021/12/30 07:31:56;;;;;;;;;;;;;;;6.82;100.00;100468.53;5096960;28;1491;-76
2021/12/30 07:34:22;;;;;;;;;;;;;;;6.85;100.00;100479.16;5081491;28;1344;-76
2021/12/30 07:36:49;;;;;;;;;;;;;;;6.84;100.00;100477.41;5098217;28;906;-75
2021/12/30 07:39:15;;;;;;;;;;;;;;;6.83;100.00;100481.06;5062581;28;1118;-76
2021/12/30 07:41:41;;;;;;;;;;;;;;;6.84;100.00;100480.13;5097325;28;1156;-76
2021/12/30 07:44:09;;;;;;;;;;;;;;;6.85;100.00;100470.16;5061017;28;1298;-77
2021/12/30 07:46:37;;;;;;;;;;;;;;;6.86;100.00;100475.47;5096578;28;1909;-76
2021/12/30 07:49:05;;;;;;;;;;;;;;;6.85;100.00;100476.44;5097494;28;832;-76
2021/12/30 07:51:31;;;;;;;;;;;;;;;6.88;100.00;100475.34;5097213;28;1116;-76
2021/12/30 07:53:57;;;;;;;;;;;;;;;6.87;100.00;100482.59;5096449;28;1388;-76
2021/12/30 07:56:24;;;;;;;;;;;;;;;6.92;100.00;100484.09;5096860;28;1099;-75
2021/12/30 07:58:50;;;;;;;;;;;;;;;6.92;100.00;100484.97;5096573;28;1163;-76
2021/12/30 08:01:16;;;;;;;;;;;;;;;6.94;100.00;100485.72;5097000;28;882;-74
2021/12/30 08:03:44;;;;;;;;;;;;;;;6.94;100.00;100479.47;5096485;28;1392;-76
2021/12/30 08:06:10;;;;;;;;;;;;;;;6.94;100.00;100487.56;5095723;28;1919;-76
2021/12/30 08:08:37;;;;;;;;;;;;;;;6.94;100.00;100493.81;5096834;28;878;-74
2021/12/30 08:11:03;;;;;;;;;;;;;;;6.95;100.00;100490.16;5099035;28;1097;-77
2021/12/30 08:13:30;;;;;;;;;;;;;;;6.97;100.00;100493.59;5103211;28;1363;-75
2021/12/30 08:15:56;;;;;;;;;;;;;;;6.96;100.00;100496.41;5074121;28;1177;-75
2021/12/30 08:18:22;;;;;;;;;;;;;;;6.97;100.00;100499.00;5077034;28;810;-75
2021/12/30 08:20:52;;;;;;;;;;;;;;;6.99;100.00;100497.06;5075621;28;1064;-75
2021/12/30 08:23:18;;;;;;;;;;;;;;;7.03;100.00;100492.31;5076037;28;1423;-75
2021/12/30 08:25:49;;;;;;;;;;;;;;;7.01;100.00;100486.16;5075045;28;749;-76
2021/12/30 08:28:15;;;;;;;;;;;;;;;6.96;100.00;100480.22;5075355;28;895;-75
2021/12/30 08:30:42;;;;;;;;;;;;;;;6.95;100.00;100483.88;5072600;28;1113;-76
2021/12/30 08:33:08;;;;;;;;;;;;;;;6.90;100.00;100483.34;5071725;28;1308;-76
2021/12/30 08:35:34;;;;;;;;;;;;;;;6.85;100.00;100502.53;5072082;28;1002;-73
2021/12/30 08:38:02;;;;;;;;;;;;;;;6.83;100.00;100501.81;5072205;28;990;-75
2021/12/30 08:40:30;;;;;;;;;;;;;;;6.84;100.00;100504.41;5073125;28;1384;-75
2021/12/30 08:42:56;;;;;;;;;;;;;;;6.84;100.00;100506.22;5092835;28;1392;-75
2021/12/30 08:45:23;;;;;;;;;;;;;;;6.86;100.00;100515.06;5074248;28;990;-74
2021/12/30 08:47:49;;;;;;;;;;;;;;;6.87;100.00;100523.06;5073535;28;1906;-76
2021/12/30 08:50:17;;;;;;;;;;;;;;;6.85;100.00;100516.94;5091913;28;839;-73
2021/12/30 08:52:44;;;;;;;;;;;;;;;6.86;100.00;100510.53;5092236;28;1349;-74
2021/12/30 08:55:13;;;;;;;;;;;;;;;6.88;100.00;100510.41;5092741;28;946;-77
2021/12/30 08:57:40;;;;;;;;;;;;;;;6.90;100.00;100518.44;5092520;28;1053;-75
2021/12/30 09:00:08;;;;;;;;;;;;;;;6.91;100.00;100515.63;5092113;28;1156;-76
2021/12/30 09:02:35;;;;;;;;;;;;;;;6.94;100.00;100528.03;5092454;28;887;-76
2021/12/30 09:05:01;;;;;;;;;;;;;;;6.96;100.00;100524.28;5092091;28;1298;-75
2021/12/30 09:07:27;;;;;;;;;;;;;;;6.96;100.00;100531.47;5091719;28;1914;-76
2021/12/30 09:09:53;;;;;;;;;;;;;;;6.98;100.00;100529.56;5092625;28;914;-77
2021/12/30 09:12:22;;;;;;;;;;;;;;;6.97;100.00;100530.53;5091150;28;985;-77
2021/12/30 09:14:48;;;;;;;;;;;;;;;6.99;100.00;100531.28;5073781;28;1313;-75
2021/12/30 09:17:15;;;;;;;;;;;;;;;6.98;100.00;100533.09;5091653;28;978;-76
2021/12/30 09:19:41;;;;;;;;;;;;;;;7.00;100.00;100536.59;5073448;28;1005;-75
2021/12/30 09:22:07;;;;;;;;;;;;;;;6.99;100.00;100537.53;5091365;28;827;-76
2021/12/30 09:24:34;;;;;;;;;;;;;;;7.02;100.00;100541.88;5075882;28;1506;-76
2021/12/30 09:27:00;;;;;;;;;;;;;;;7.03;100.00;100538.22;5091664;28;1981;-77
2021/12/30 09:29:28;;;;;;;;;;;;;;;7.03;100.00;100551.69;5074431;28;1014;-76
2021/12/30 09:31:55;;;;;;;;;;;;;;;7.03;100.00;100541.75;5092027;28;1010;-77
2021/12/30 09:34:21;;;;;;;;;;;;;;;7.09;100.00;100540.47;5091402;28;1315;-77
2021/12/30 09:36:47;;;;;;;;;;;;;;;7.14;100.00;100549.09;5092462;28;935;-76
2021/12/30 09:39:15;;;;;;;;;;;;;;;7.16;100.00;100536.38;5092228;28;1085;-76
2021/12/30 09:41:43;;;;;;;;;;;;;;;7.22;100.00;100550.44;5092379;28;1037;-77
2021/12/30 09:44:11;;;;;;;;;;;;;;;7.27;100.00;100540.13;5093308;28;1400;-76
2021/12/30 09:46:39;;;;;;;;;;;;;;;7.28;100.00;100537.34;5069404;28;2151;-77
2021/12/30 09:49:06;;;;;;;;;;;;;;;7.31;100.00;100537.13;5092752;28;1216;-74
2021/12/30 09:51:33;;;;;;;;;;;;;;;7.35;100.00;100535.09;5086647;28;1185;-76
2021/12/30 09:54:00;;;;;;;;;;;;;;;7.39;100.00;100550.09;5094690;28;1305;-76
2021/12/30 09:56:27;;;;;;;;;;;;;;;7.44;100.00;100547.94;5095301;28;962;-76
2021/12/30 09:58:53;;;;;;;;;;;;;;;7.49;100.00;100553.84;5097224;28;898;-75
2021/12/30 10:01:20;;;;;;;;;;;;;;;7.53;100.00;100549.97;5078169;28;1009;-77
2021/12/30 10:03:47;;;;;;;;;;;;;;;7.56;100.00;100548.03;5095732;28;1458;-75
2021/12/30 10:06:15;;;;;;;;;;;;;;;7.60;100.00;100544.13;5076739;28;939;-77
2021/12/30 10:08:52;;;;;;;;;;;;;;;7.67;100.00;100540.00;5095434;28;1955;-77
2021/12/30 10:11:18;;;;;;;;;;;;;;;7.68;100.00;100533.63;5095325;28;851;-77
2021/12/30 10:13:49;;;;;;;;;;;;;;;7.73;100.00;100538.72;5095142;28;1463;-75
2021/12/30 10:16:16;;;;;;;;;;;;;;;7.76;100.00;100538.47;5094245;28;923;-74
2021/12/30 10:18:43;;;;;;;;;;;;;;;7.78;100.00;100525.75;5094646;28;780;-75
2021/12/30 10:21:13;;;;;;;;;;;;;;;7.84;100.00;100518.06;5094407;28;934;-76
2021/12/30 10:23:42;;;;;;;;;;;;;;;7.87;100.00;100522.38;5094527;28;1418;-75
2021/12/30 10:26:09;;;;;;;;;;;;;;;7.91;100.00;100518.47;5093760;28;1034;-76
2021/12/30 10:28:37;;;;;;;;;;;;;;;7.96;100.00;100510.00;5094135;28;1918;-75
2021/12/30 10:31:15;;;;;;;;;;;;;;;8.00;100.00;100511.50;5093982;28;1054;-75
2021/12/30 10:33:47;;;;;;;;;;;;;;;8.06;100.00;100505.66;5093995;28;1327;-75
2021/12/30 10:36:16;;;;;;;;;;;;;;;8.14;100.00;100505.09;5093745;28;878;-76
2021/12/30 10:38:42;;;;;;;;;;;;;;;8.16;100.00;100493.19;5094100;28;792;-76
2021/12/30 10:41:08;;;;;;;;;;;;;;;8.23;100.00;100499.00;5094375;28;667;-75
2021/12/30 10:43:44;;;;;;;;;;;;;;;8.24;100.00;100510.66;5075668;28;1322;-74
2021/12/30 10:46:13;;;;;;;;;;;;;;;8.25;100.00;100506.97;5093602;28;1006;-76
2021/12/30 10:48:46;;;;;;;;;;;;;;;8.29;100.00;100500.38;5093909;28;1914;-76
2021/12/30 10:51:14;;;;;;;;;;;;;;;8.28;100.00;100487.81;5093688;28;986;-73
2021/12/30 10:53:42;;;;;;;;;;;;;;;8.34;100.00;100506.28;5093794;28;1420;-75
2021/12/30 10:56:26;;;;;;;;;;;;;;;8.30;100.00;100511.06;5092854;28;868;-76
2021/12/30 10:58:54;;;;;;;;;;;;;;;8.34;100.00;100517.13;5075579;28;1352;-77
2021/12/30 11:01:21;;;;;;;;;;;;;;;8.33;100.00;100515.38;5093543;28;882;-77
2021/12/30 11:03:54;;;;;;;;;;;;;;;8.27;100.00;100507.72;5093957;28;1399;-76
2021/12/30 11:06:21;;;;;;;;;;;;;;;8.27;100.00;100507.72;5093261;28;989;-77
2021/12/30 11:09:03;;;;;;;;;;;;;;;8.26;100.00;100504.16;5093702;28;1918;-76
2021/12/30 11:11:30;;;;;;;;;;;;;;;8.28;100.00;100517.56;5093625;28;859;-76
2021/12/30 11:13:57;;;;;;;;;;;;;;;8.24;100.00;100510.66;5093361;28;1359;-77
2021/12/30 11:16:23;;;;;;;;;;;;;;;8.24;100.00;100514.22;5075160;28;982;-76
2021/12/30 11:18:50;;;;;;;;;;;;;;;8.20;100.00;100494.69;5093423;28;715;-76
2021/12/30 11:21:31;;;;;;;;;;;;;;;8.19;100.00;100497.47;5093985;28;934;-77
2021/12/30 11:23:59;;;;;;;;;;;;;;;8.16;100.00;100500.41;5074621;28;1288;-77
2021/12/30 11:26:25;;;;;;;;;;;;;;;8.14;100.00;100495.13;5093081;28;824;-75
2021/12/30 11:28:52;;;;;;;;;;;;;;;8.13;100.00;100485.28;5092808;28;1914;-77
2021/12/30 11:31:18;;;;;;;;;;;;;;;8.10;100.00;100482.81;5093244;28;993;-77
2021/12/30 11:33:46;;;;;;;;;;;;;;;8.09;100.00;100481.06;5093101;28;1436;-76
2021/12/30 11:36:12;;;;;;;;;;;;;;;8.13;100.00;100482.56;5092349;28;1001;-76
2021/12/30 11:38:38;;;;;;;;;;;;;;;8.14;100.00;100483.47;5091977;28;1006;-76
2021/12/30 11:41:06;;;;;;;;;;;;;;;8.13;100.00;100471.75;5092923;28;995;-75
2021/12/30 11:43:42;;;;;;;;;;;;;;;8.17;100.00;100481.38;5092729;28;1314;-77
2021/12/30 11:46:08;;;;;;;;;;;;;;;8.19;100.00;100479.41;5092839;28;950;-77
2021/12/30 11:48:38;;;;;;;;;;;;;;;8.20;100.00;100478.44;5093455;28;1914;-77
2021/12/30 11:51:05;;;;;;;;;;;;;;;8.23;100.00;100487.28;5091806;28;800;-76
2021/12/30 11:53:32;;;;;;;;;;;;;;;8.23;100.00;100481.88;5092910;28;1312;-76
2021/12/30 11:55:59;;;;;;;;;;;;;;;8.23;100.00;100477.34;5092538;28;1006;-76
2021/12/30 11:58:32;;;;;;;;;;;;;;;8.26;100.00;100460.00;5091239;28;1133;-76
2021/12/30 12:01:00;;;;;;;;;;;;;;;8.26;100.00;100462.72;5092563;28;978;-76
2021/12/30 12:03:30;;;;;;;;;;;;;;;8.26;100.00;100466.31;5092310;28;1373;-77
2021/12/30 12:05:57;;;;;;;;;;;;;;;8.21;100.00;100469.34;5092407;28;880;-76
2021/12/30 12:08:28;;;;;;;;;;;;;;;8.21;100.00;100469.34;5091098;28;1975;-77
2021/12/30 12:11:09;;;;;;;;;;;;;;;8.18;100.00;100469.56;5090821;28;955;-75
2021/12/30 12:13:37;;;;;;;;;;;;;;;8.14;100.00;100468.09;5092397;28;1309;-77
2021/12/30 12:16:04;;;;;;;;;;;;;;;8.17;100.00;100462.44;5092000;28;835;-76
2021/12/30 12:18:31;;;;;;;;;;;;;;;8.18;100.00;100453.34;5092277;28;994;-77
2021/12/30 12:20:59;;;;;;;;;;;;;;;8.18;100.00;100455.22;5092193;28;870;-74
2021/12/30 12:23:32;;;;;;;;;;;;;;;8.18;100.00;100453.34;5091603;28;1302;-76
2021/12/30 12:26:09;;;;;;;;;;;;;;;8.15;100.00;100464.41;5073475;28;947;-75
2021/12/30 12:28:37;;;;;;;;;;;;;;;8.13;100.00;100462.78;5090208;28;1938;-76
2021/12/30 12:31:06;;;;;;;;;;;;;;;8.07;100.00;100456.03;5091814;28;962;-75
2021/12/30 12:33:33;;;;;;;;;;;;;;;8.02;100.00;100459.06;5091977;28;1331;-75
2021/12/30 12:36:00;;;;;;;;;;;;;;;8.00;100.00;100449.31;5091555;28;898;-74
2021/12/30 12:38:36;;;;;;;;;;;;;;;7.97;100.00;100453.13;5090601;28;1401;-77
2021/12/30 12:41:15;;;;;;;;;;;;;;;7.96;100.00;100453.25;5091983;28;1057;-77
2021/12/30 12:43:43;;;;;;;;;;;;;;;7.93;100.00;100445.38;5091972;28;1354;-74
2021/12/30 12:46:09;;;;;;;;;;;;;;;7.94;100.00;100434.44;5091359;28;1026;-77
2021/12/30 12:48:39;;;;;;;;;;;;;;;7.94;100.00;100426.34;5090500;28;1915;-75
2021/12/30 12:51:07;;;;;;;;;;;;;;;7.95;100.00;100419.06;5091881;28;990;-75